sensor_id;sensor_type;location;lat;lon;timestamp;pressure;altitude;pressure_sealevel;temperature;humidity
65131;BME280;51709;54.912;8.316;2023-07-20T00:01:12;101042.19;;;16.65;65.91
65131;BME280;51709;54.912;8.316;2023-07-20T00:06:32;101038.84;;;16.69;65.73
65131;BME280;51709;54.912;8.316;2023-07-20T00:11:53;101042.03;;;16.73;65.53
65131;BME280;51709;54.912;8.316;2023-07-20T00:17:14;101042.72;;;16.75;65.68
65131;BME280;51709;54.912;8.316;2023-07-20T00:22:35;101039.75;;;16.77;66.20
65131;BME280;51709;54.912;8.316;2023-07-20T00:27:56;101040.38;;;16.72;66.17
65131;BME280;51709;54.912;8.316;2023-07-20T00:33:17;101036.56;;;16.73;66.10
65131;BME280;51709;54.912;8.316;2023-07-20T00:38:37;101040.63;;;16.77;66.18
65131;BME280;51709;54.912;8.316;2023-07-20T00:43:58;101018.22;;;16.73;65.96
65131;BME280;51709;54.912;8.316;2023-07-20T00:49:18;101029.59;;;16.70;65.72
65131;BME280;51709;54.912;8.316;2023-07-20T00:54:41;101030.91;;;16.75;65.38
65131;BME280;51709;54.912;8.316;2023-07-20T01:00:02;101021.22;;;16.79;65.70
65131;BME280;51709;54.912;8.316;2023-07-20T01:05:33;101031.38;;;16.78;65.58
65131;BME280;51709;54.912;8.316;2023-07-20T01:11:00;101023.22;;;16.70;65.40
65131;BME280;51709;54.912;8.316;2023-07-20T01:16:23;101035.84;;;16.64;65.08
65131;BME280;51709;54.912;8.316;2023-07-20T01:21:51;101023.63;;;16.67;65.00
65131;BME280;51709;54.912;8.316;2023-07-20T01:27:35;101015.59;;;16.65;65.09
65131;BME280;51709;54.912;8.316;2023-07-20T01:32:57;101028.66;;;16.63;65.24
65131;BME280;51709;54.912;8.316;2023-07-20T01:38:19;101030.28;;;16.58;64.82
65131;BME280;51709;54.912;8.316;2023-07-20T01:43:42;101023.06;;;16.57;64.61
65131;BME280;51709;54.912;8.316;2023-07-20T01:49:03;101011.72;;;16.60;65.04
65131;BME280;51709;54.912;8.316;2023-07-20T01:54:25;101013.41;;;16.61;64.79
65131;BME280;51709;54.912;8.316;2023-07-20T01:59:46;101029.88;;;16.61;65.33
65131;BME280;51709;54.912;8.316;2023-07-20T02:05:07;101010.88;;;16.45;66.24
65131;BME280;51709;54.912;8.316;2023-07-20T02:10:28;101006.81;;;16.41;66.24
65131;BME280;51709;54.912;8.316;2023-07-20T02:15:48;100993.69;;;16.36;66.21
65131;BME280;51709;54.912;8.316;2023-07-20T02:21:10;100996.63;;;16.35;66.50
65131;BME280;51709;54.912;8.316;2023-07-20T02:26:31;101003.81;;;16.36;65.74
65131;BME280;51709;54.912;8.316;2023-07-20T02:31:52;101000.84;;;16.37;65.00
65131;BME280;51709;54.912;8.316;2023-07-20T02:37:12;100992.53;;;16.45;64.95
65131;BME280;51709;54.912;8.316;2023-07-20T02:42:33;100999.69;;;16.46;65.58
65131;BME280;51709;54.912;8.316;2023-07-20T02:47:54;101007.59;;;16.35;66.14
65131;BME280;51709;54.912;8.316;2023-07-20T02:53:15;101013.84;;;16.29;66.79
65131;BME280;51709;54.912;8.316;2023-07-20T02:58:40;101011.50;;;15.97;67.71
65131;BME280;51709;54.912;8.316;2023-07-20T03:04:04;101014.50;;;15.87;68.38
65131;BME280;51709;54.912;8.316;2023-07-20T03:09:25;101017.66;;;15.99;68.63
65131;BME280;51709;54.912;8.316;2023-07-20T03:14:46;101013.19;;;16.12;68.38
65131;BME280;51709;54.912;8.316;2023-07-20T03:20:07;101011.56;;;16.18;68.39
65131;BME280;51709;54.912;8.316;2023-07-20T03:25:30;101020.84;;;16.17;68.65
65131;BME280;51709;54.912;8.316;2023-07-20T03:30:54;101010.91;;;16.01;68.91
65131;BME280;51709;54.912;8.316;2023-07-20T03:36:18;101010.19;;;15.93;69.55
65131;BME280;51709;54.912;8.316;2023-07-20T03:41:38;101010.25;;;15.99;69.34
65131;BME280;51709;54.912;8.316;2023-07-20T03:46:59;101000.63;;;16.03;69.42
65131;BME280;51709;54.912;8.316;2023-07-20T03:52:20;101010.44;;;15.98;69.07
65131;BME280;51709;54.912;8.316;2023-07-20T03:57:40;101004.59;;;16.01;68.96
65131;BME280;51709;54.912;8.316;2023-07-20T04:03:01;101001.41;;;16.12;68.76
65131;BME280;51709;54.912;8.316;2023-07-20T04:08:23;100996.00;;;16.18;68.05
65131;BME280;51709;54.912;8.316;2023-07-20T04:13:45;101007.03;;;16.25;67.59
65131;BME280;51709;54.912;8.316;2023-07-20T04:19:05;100987.25;;;16.44;66.94
65131;BME280;51709;54.912;8.316;2023-07-20T04:24:26;100995.94;;;16.62;66.77
65131;BME280;51709;54.912;8.316;2023-07-20T04:29:47;101013.41;;;16.61;66.91
65131;BME280;51709;54.912;8.316;2023-07-20T04:35:08;101019.31;;;16.58;66.73
65131;BME280;51709;54.912;8.316;2023-07-20T04:40:31;101015.59;;;16.65;66.92
65131;BME280;51709;54.912;8.316;2023-07-20T04:45:52;101004.69;;;16.72;67.17
65131;BME280;51709;54.912;8.316;2023-07-20T04:51:13;101023.53;;;16.60;66.34
65131;BME280;51709;54.912;8.316;2023-07-20T04:56:34;101020.06;;;16.52;66.01
65131;BME280;51709;54.912;8.316;2023-07-20T05:01:57;101012.22;;;16.49;65.08
65131;BME280;51709;54.912;8.316;2023-07-20T05:07:17;101012.03;;;16.50;64.33
65131;BME280;51709;54.912;8.316;2023-07-20T05:12:38;101010.00;;;16.59;64.28
65131;BME280;51709;54.912;8.316;2023-07-20T05:17:59;101023.38;;;16.62;65.44
65131;BME280;51709;54.912;8.316;2023-07-20T05:23:21;101022.94;;;16.29;67.68
65131;BME280;51709;54.912;8.316;2023-07-20T05:28:42;101026.88;;;15.98;69.50
65131;BME280;51709;54.912;8.316;2023-07-20T05:34:02;101027.84;;;15.76;70.45
65131;BME280;51709;54.912;8.316;2023-07-20T05:39:23;101019.44;;;16.06;69.62
65131;BME280;51709;54.912;8.316;2023-07-20T05:44:44;101014.38;;;16.39;69.15
65131;BME280;51709;54.912;8.316;2023-07-20T05:50:05;101012.03;;;16.50;68.87
65131;BME280;51709;54.912;8.316;2023-07-20T05:55:26;101016.38;;;16.45;69.07
65131;BME280;51709;54.912;8.316;2023-07-20T06:00:49;101013.25;;;16.48;68.72
65131;BME280;51709;54.912;8.316;2023-07-20T06:06:11;101019.66;;;16.55;68.47
65131;BME280;51709;54.912;8.316;2023-07-20T06:11:33;101028.56;;;16.57;68.09
65131;BME280;51709;54.912;8.316;2023-07-20T06:16:53;101029.53;;;16.85;67.33
65131;BME280;51709;54.912;8.316;2023-07-20T06:22:14;101031.22;;;17.07;66.60
65131;BME280;51709;54.912;8.316;2023-07-20T06:27:34;101038.81;;;17.26;66.19
65131;BME280;51709;54.912;8.316;2023-07-20T06:32:55;101024.09;;;17.55;66.04
65131;BME280;51709;54.912;8.316;2023-07-20T06:38:16;101036.31;;;17.52;66.28
65131;BME280;51709;54.912;8.316;2023-07-20T06:43:39;101065.34;;;16.98;67.98
65131;BME280;51709;54.912;8.316;2023-07-20T06:49:06;101062.41;;;16.64;69.11
65131;BME280;51709;54.912;8.316;2023-07-20T06:54:31;101051.03;;;16.82;68.69
65131;BME280;51709;54.912;8.316;2023-07-20T06:59:55;101044.97;;;17.07;68.27
65131;BME280;51709;54.912;8.316;2023-07-20T07:05:15;101048.91;;;17.19;68.40
65131;BME280;51709;54.912;8.316;2023-07-20T07:10:40;101043.66;;;17.24;68.17
65131;BME280;51709;54.912;8.316;2023-07-20T07:16:01;101035.41;;;17.45;67.60
65131;BME280;51709;54.912;8.316;2023-07-20T07:21:21;101049.41;;;17.71;66.70
65131;BME280;51709;54.912;8.316;2023-07-20T07:26:41;101049.00;;;17.74;66.45
65131;BME280;51709;54.912;8.316;2023-07-20T07:32:02;101054.38;;;17.89;65.80
65131;BME280;51709;54.912;8.316;2023-07-20T07:37:23;101043.50;;;18.09;63.63
65131;BME280;51709;54.912;8.316;2023-07-20T07:42:43;101063.16;;;18.40;62.61
65131;BME280;51709;54.912;8.316;2023-07-20T07:48:05;101061.34;;;18.53;61.70
65131;BME280;51709;54.912;8.316;2023-07-20T07:53:25;101058.19;;;18.56;61.12
65131;BME280;51709;54.912;8.316;2023-07-20T07:58:49;101065.91;;;18.74;60.63
65131;BME280;51709;54.912;8.316;2023-07-20T08:04:12;101090.53;;;18.89;59.88
65131;BME280;51709;54.912;8.316;2023-07-20T08:09:33;101074.91;;;19.15;58.90
65131;BME280;51709;54.912;8.316;2023-07-20T08:14:54;101074.31;;;19.26;58.28
65131;BME280;51709;54.912;8.316;2023-07-20T08:20:15;101082.22;;;19.62;57.73
65131;BME280;51709;54.912;8.316;2023-07-20T08:25:37;101085.16;;;19.73;56.50
65131;BME280;51709;54.912;8.316;2023-07-20T08:30:59;101079.66;;;20.00;55.80
65131;BME280;51709;54.912;8.316;2023-07-20T08:36:20;101090.25;;;19.70;55.90
65131;BME280;51709;54.912;8.316;2023-07-20T08:41:42;101104.25;;;19.88;55.53
65131;BME280;51709;54.912;8.316;2023-07-20T08:47:04;101108.28;;;20.12;55.06
65131;BME280;51709;54.912;8.316;2023-07-20T08:52:26;101106.16;;;20.40;54.56
65131;BME280;51709;54.912;8.316;2023-07-20T08:57:49;101113.56;;;20.33;54.78
65131;BME280;51709;54.912;8.316;2023-07-20T09:03:11;101121.44;;;20.36;54.74
65131;BME280;51709;54.912;8.316;2023-07-20T09:08:32;101112.56;;;20.91;54.13
65131;BME280;51709;54.912;8.316;2023-07-20T09:14:08;101118.66;;;21.13;53.27
65131;BME280;51709;54.912;8.316;2023-07-20T09:19:29;101134.78;;;21.16;53.02
65131;BME280;51709;54.912;8.316;2023-07-20T09:24:52;101131.31;;;21.33;52.69
65131;BME280;51709;54.912;8.316;2023-07-20T09:30:16;101133.97;;;21.15;52.76
65131;BME280;51709;54.912;8.316;2023-07-20T09:35:38;101137.00;;;21.01;52.85
65131;BME280;51709;54.912;8.316;2023-07-20T09:41:05;101137.34;;;21.55;51.91
65131;BME280;51709;54.912;8.316;2023-07-20T09:46:50;101137.72;;;21.27;52.72
65131;BME280;51709;54.912;8.316;2023-07-20T09:52:14;101152.81;;;20.61;54.39
65131;BME280;51709;54.912;8.316;2023-07-20T09:57:56;101153.50;;;20.04;56.23
65131;BME280;51709;54.912;8.316;2023-07-20T10:03:22;101154.97;;;20.46;55.82
65131;BME280;51709;54.912;8.316;2023-07-20T10:08:44;101151.75;;;20.68;56.25
65131;BME280;51709;54.912;8.316;2023-07-20T10:14:12;101164.66;;;21.38;54.72
65131;BME280;51709;54.912;8.316;2023-07-20T10:19:43;101157.91;;;21.65;54.24
65131;BME280;51709;54.912;8.316;2023-07-20T10:25:11;101158.22;;;21.44;54.71
65131;BME280;51709;54.912;8.316;2023-07-20T10:30:37;101155.03;;;21.85;54.52
65131;BME280;51709;54.912;8.316;2023-07-20T10:36:03;101172.88;;;21.89;53.19
65131;BME280;51709;54.912;8.316;2023-07-20T10:41:33;101166.44;;;22.44;52.09
65131;BME280;51709;54.912;8.316;2023-07-20T10:47:02;101173.34;;;23.14;50.30
65131;BME280;51709;54.912;8.316;2023-07-20T10:52:25;101186.19;;;23.27;49.60
65131;BME280;51709;54.912;8.316;2023-07-20T10:58:06;101185.28;;;22.78;49.83
65131;BME280;51709;54.912;8.316;2023-07-20T11:03:30;101186.59;;;23.30;49.01
65131;BME280;51709;54.912;8.316;2023-07-20T11:09:07;101187.44;;;23.13;49.36
65131;BME280;51709;54.912;8.316;2023-07-20T11:14:32;101189.81;;;22.73;50.23
65131;BME280;51709;54.912;8.316;2023-07-20T11:19:56;101192.88;;;23.19;49.04
65131;BME280;51709;54.912;8.316;2023-07-20T11:25:20;101189.16;;;23.61;47.83
65131;BME280;51709;54.912;8.316;2023-07-20T11:30:41;101184.41;;;23.50;47.92
65131;BME280;51709;54.912;8.316;2023-07-20T11:36:01;101200.31;;;23.43;48.13
65131;BME280;51709;54.912;8.316;2023-07-20T11:41:22;101201.06;;;23.14;47.95
65131;BME280;51709;54.912;8.316;2023-07-20T11:46:43;101183.28;;;23.40;47.68
65131;BME280;51709;54.912;8.316;2023-07-20T11:52:06;101194.94;;;23.60;46.84
65131;BME280;51709;54.912;8.316;2023-07-20T11:57:27;101190.22;;;22.03;49.57
65131;BME280;51709;54.912;8.316;2023-07-20T12:02:48;101209.34;;;20.52;55.30
65131;BME280;51709;54.912;8.316;2023-07-20T12:08:09;101220.66;;;19.04;60.83
65131;BME280;51709;54.912;8.316;2023-07-20T12:13:37;101209.44;;;18.71;62.10
65131;BME280;51709;54.912;8.316;2023-07-20T12:19:13;101202.78;;;18.31;63.44
65131;BME280;51709;54.912;8.316;2023-07-20T12:24:33;101199.31;;;19.99;60.07
65131;BME280;51709;54.912;8.316;2023-07-20T12:29:54;101175.75;;;20.68;58.08
65131;BME280;51709;54.912;8.316;2023-07-20T12:35:15;101194.28;;;21.31;56.09
65131;BME280;51709;54.912;8.316;2023-07-20T12:40:36;101200.34;;;20.96;56.27
65131;BME280;51709;54.912;8.316;2023-07-20T12:45:56;101219.91;;;19.90;58.45
65131;BME280;51709;54.912;8.316;2023-07-20T12:51:18;101202.84;;;19.40;60.27
65131;BME280;51709;54.912;8.316;2023-07-20T12:56:38;101187.88;;;20.08;58.55
65131;BME280;51709;54.912;8.316;2023-07-20T13:02:02;101195.97;;;20.49;57.08
65131;BME280;51709;54.912;8.316;2023-07-20T13:07:30;101187.91;;;20.34;57.77
65131;BME280;51709;54.912;8.316;2023-07-20T13:12:55;101193.94;;;20.89;55.70
65131;BME280;51709;54.912;8.316;2023-07-20T13:18:15;101195.41;;;21.93;53.87
65131;BME280;51709;54.912;8.316;2023-07-20T13:23:37;101194.63;;;22.35;52.54
65131;BME280;51709;54.912;8.316;2023-07-20T13:28:59;101189.03;;;22.66;51.73
65131;BME280;51709;54.912;8.316;2023-07-20T13:34:19;101191.81;;;22.17;52.62
65131;BME280;51709;54.912;8.316;2023-07-20T13:39:40;101175.41;;;21.91;53.23
65131;BME280;51709;54.912;8.316;2023-07-20T13:45:00;101176.25;;;21.91;52.97
65131;BME280;51709;54.912;8.316;2023-07-20T13:50:21;101197.25;;;21.67;52.60
65131;BME280;51709;54.912;8.316;2023-07-20T13:55:46;101183.16;;;21.75;52.59
65131;BME280;51709;54.912;8.316;2023-07-20T14:01:09;101191.38;;;22.20;52.01
65131;BME280;51709;54.912;8.316;2023-07-20T14:06:31;101190.00;;;22.04;52.03
65131;BME280;51709;54.912;8.316;2023-07-20T14:11:53;101185.44;;;22.16;51.50
65131;BME280;51709;54.912;8.316;2023-07-20T14:17:16;101183.34;;;22.12;50.85
65131;BME280;51709;54.912;8.316;2023-07-20T14:22:37;101196.19;;;22.49;50.40
65131;BME280;51709;54.912;8.316;2023-07-20T14:27:58;101186.72;;;22.14;51.00
65131;BME280;51709;54.912;8.316;2023-07-20T14:33:18;101197.66;;;21.71;51.78
65131;BME280;51709;54.912;8.316;2023-07-20T14:38:39;101191.09;;;21.28;52.51
65131;BME280;51709;54.912;8.316;2023-07-20T14:44:01;101206.34;;;21.81;51.89
65131;BME280;51709;54.912;8.316;2023-07-20T14:49:22;101190.19;;;21.40;52.64
65131;BME280;51709;54.912;8.316;2023-07-20T14:54:43;101198.03;;;20.73;54.75
65131;BME280;51709;54.912;8.316;2023-07-20T15:00:04;101190.38;;;20.75;55.37
65131;BME280;51709;54.912;8.316;2023-07-20T15:05:30;101194.19;;;20.87;55.24
65131;BME280;51709;54.912;8.316;2023-07-20T15:10:51;101172.69;;;21.02;54.63
65131;BME280;51709;54.912;8.316;2023-07-20T15:16:12;101180.25;;;20.56;54.44
65131;BME280;51709;54.912;8.316;2023-07-20T15:21:33;101195.16;;;20.29;56.11
65131;BME280;51709;54.912;8.316;2023-07-20T15:26:54;101194.28;;;20.35;55.65
65131;BME280;51709;54.912;8.316;2023-07-20T15:32:17;101173.81;;;20.75;54.45
65131;BME280;51709;54.912;8.316;2023-07-20T15:37:37;101190.25;;;21.65;53.64
65131;BME280;51709;54.912;8.316;2023-07-20T15:42:58;101161.75;;;26.94;44.47
65131;BME280;51709;54.912;8.316;2023-07-20T15:48:19;101176.56;;;29.33;40.29
65131;BME280;51709;54.912;8.316;2023-07-20T15:53:40;101169.81;;;30.36;37.39
65131;BME280;51709;54.912;8.316;2023-07-20T15:59:01;101169.22;;;30.14;37.76
65131;BME280;51709;54.912;8.316;2023-07-20T16:04:21;101177.19;;;31.31;34.39
65131;BME280;51709;54.912;8.316;2023-07-20T16:09:42;101180.97;;;32.47;32.93
65131;BME280;51709;54.912;8.316;2023-07-20T16:15:03;101174.63;;;31.34;33.44
65131;BME280;51709;54.912;8.316;2023-07-20T16:20:27;101141.09;;;31.58;33.83
65131;BME280;51709;54.912;8.316;2023-07-20T16:25:47;101179.38;;;33.64;31.72
65131;BME280;51709;54.912;8.316;2023-07-20T16:31:12;101167.38;;;33.35;31.58
65131;BME280;51709;54.912;8.316;2023-07-20T16:36:33;101173.84;;;33.12;32.04
65131;BME280;51709;54.912;8.316;2023-07-20T16:41:58;101147.13;;;33.10;32.10
65131;BME280;51709;54.912;8.316;2023-07-20T16:47:21;101146.91;;;33.25;30.97
65131;BME280;51709;54.912;8.316;2023-07-20T16:52:43;101159.78;;;31.34;33.53
65131;BME280;51709;54.912;8.316;2023-07-20T16:58:03;101163.84;;;29.82;35.62
65131;BME280;51709;54.912;8.316;2023-07-20T17:03:24;101164.72;;;27.74;38.46
65131;BME280;51709;54.912;8.316;2023-07-20T17:08:45;101144.88;;;28.70;36.47
65131;BME280;51709;54.912;8.316;2023-07-20T17:14:05;101149.97;;;26.70;38.74
65131;BME280;51709;54.912;8.316;2023-07-20T17:19:26;101143.88;;;25.91;41.13
65131;BME280;51709;54.912;8.316;2023-07-20T17:24:49;101131.72;;;24.15;44.71
65131;BME280;51709;54.912;8.316;2023-07-20T17:30:12;101129.22;;;22.16;47.32
65131;BME280;51709;54.912;8.316;2023-07-20T17:35:35;101132.22;;;21.21;49.14
65131;BME280;51709;54.912;8.316;2023-07-20T17:40:56;101135.78;;;20.77;49.54
65131;BME280;51709;54.912;8.316;2023-07-20T17:46:17;101122.44;;;20.61;50.22
65131;BME280;51709;54.912;8.316;2023-07-20T17:51:41;101127.81;;;21.07;49.47
65131;BME280;51709;54.912;8.316;2023-07-20T17:57:01;101128.22;;;21.17;49.69
65131;BME280;51709;54.912;8.316;2023-07-20T18:02:22;101109.25;;;21.20;50.09
65131;BME280;51709;54.912;8.316;2023-07-20T18:07:47;101114.72;;;20.76;51.17
65131;BME280;51709;54.912;8.316;2023-07-20T18:13:08;101111.88;;;20.45;52.16
65131;BME280;51709;54.912;8.316;2023-07-20T18:18:29;101106.59;;;20.30;52.81
65131;BME280;51709;54.912;8.316;2023-07-20T18:23:50;101110.63;;;20.15;53.51
65131;BME280;51709;54.912;8.316;2023-07-20T18:29:11;101111.91;;;20.06;53.60
65131;BME280;51709;54.912;8.316;2023-07-20T18:34:32;101108.94;;;19.74;53.75
65131;BME280;51709;54.912;8.316;2023-07-20T18:39:53;101116.09;;;19.36;54.29
65131;BME280;51709;54.912;8.316;2023-07-20T18:45:14;101117.28;;;19.14;54.82
65131;BME280;51709;54.912;8.316;2023-07-20T18:50:36;101101.50;;;18.82;55.79
65131;BME280;51709;54.912;8.316;2023-07-20T18:55:57;101112.00;;;18.65;56.58
65131;BME280;51709;54.912;8.316;2023-07-20T19:01:19;101102.13;;;18.84;56.35
65131;BME280;51709;54.912;8.316;2023-07-20T19:06:40;101104.81;;;18.71;56.93
65131;BME280;51709;54.912;8.316;2023-07-20T19:12:01;101095.31;;;18.39;58.57
65131;BME280;51709;54.912;8.316;2023-07-20T19:17:22;101109.41;;;18.23;58.93
65131;BME280;51709;54.912;8.316;2023-07-20T19:22:45;101103.47;;;17.92;60.09
65131;BME280;51709;54.912;8.316;2023-07-20T19:28:05;101111.56;;;17.72;60.95
65131;BME280;51709;54.912;8.316;2023-07-20T19:33:26;101104.22;;;17.80;61.23
65131;BME280;51709;54.912;8.316;2023-07-20T19:38:47;101112.69;;;17.85;61.74
65131;BME280;51709;54.912;8.316;2023-07-20T19:44:07;101124.06;;;17.75;62.30
65131;BME280;51709;54.912;8.316;2023-07-20T19:49:31;101113.91;;;17.75;61.88
65131;BME280;51709;54.912;8.316;2023-07-20T19:54:52;101111.22;;;17.82;61.49
65131;BME280;51709;54.912;8.316;2023-07-20T20:00:13;101104.97;;;17.95;61.13
65131;BME280;51709;54.912;8.316;2023-07-20T20:05:34;101113.31;;;17.80;61.60
65131;BME280;51709;54.912;8.316;2023-07-20T20:10:56;101117.25;;;17.71;61.69
65131;BME280;51709;54.912;8.316;2023-07-20T20:16:19;101126.81;;;17.75;62.04
65131;BME280;51709;54.912;8.316;2023-07-20T20:21:40;101113.41;;;17.65;62.15
65131;BME280;51709;54.912;8.316;2023-07-20T20:27:00;101121.78;;;17.57;62.33
65131;BME280;51709;54.912;8.316;2023-07-20T20:32:21;101111.59;;;17.51;61.16
65131;BME280;51709;54.912;8.316;2023-07-20T20:37:42;101111.59;;;17.51;61.44
65131;BME280;51709;54.912;8.316;2023-07-20T20:43:02;101098.25;;;17.48;61.90
65131;BME280;51709;54.912;8.316;2023-07-20T20:48:26;101111.00;;;17.41;62.26
65131;BME280;51709;54.912;8.316;2023-07-20T20:53:48;101100.41;;;17.38;62.29
65131;BME280;51709;54.912;8.316;2023-07-20T20:59:08;101112.59;;;17.29;63.05
65131;BME280;51709;54.912;8.316;2023-07-20T21:04:29;101100.44;;;17.17;63.33
65131;BME280;51709;54.912;8.316;2023-07-20T21:09:50;101098.44;;;17.11;63.92
65131;BME280;51709;54.912;8.316;2023-07-20T21:15:11;101094.78;;;17.04;64.07
65131;BME280;51709;54.912;8.316;2023-07-20T21:20:31;101087.13;;;17.00;64.05
65131;BME280;51709;54.912;8.316;2023-07-20T21:25:53;101101.22;;;16.97;64.11
65131;BME280;51709;54.912;8.316;2023-07-20T21:31:14;101086.03;;;16.94;64.05
65131;BME280;51709;54.912;8.316;2023-07-20T21:36:34;101089.78;;;16.93;63.68
65131;BME280;51709;54.912;8.316;2023-07-20T21:41:55;101072.09;;;16.96;63.65
65131;BME280;51709;54.912;8.316;2023-07-20T21:47:15;101072.97;;;16.96;63.59
65131;BME280;51709;54.912;8.316;2023-07-20T21:52:36;101075.88;;;16.95;63.61
65131;BME280;51709;54.912;8.316;2023-07-20T21:57:56;101072.84;;;16.90;64.12
65131;BME280;51709;54.912;8.316;2023-07-20T22:03:18;101064.63;;;16.90;64.10
65131;BME280;51709;54.912;8.316;2023-07-20T22:08:41;101064.44;;;16.91;63.89
65131;BME280;51709;54.912;8.316;2023-07-20T22:14:01;101057.25;;;16.90;64.10
65131;BME280;51709;54.912;8.316;2023-07-20T22:19:22;101057.78;;;17.00;64.01
65131;BME280;51709;54.912;8.316;2023-07-20T22:24:42;101056.75;;;17.01;64.41
65131;BME280;51709;54.912;8.316;2023-07-20T22:30:04;101066.28;;;17.05;65.16
65131;BME280;51709;54.912;8.316;2023-07-20T22:35:25;101058.53;;;17.09;64.91
65131;BME280;51709;54.912;8.316;2023-07-20T22:40:45;101053.47;;;17.12;64.82
65131;BME280;51709;54.912;8.316;2023-07-20T22:46:06;101046.94;;;17.13;65.16
65131;BME280;51709;54.912;8.316;2023-07-20T22:51:27;101035.94;;;17.13;65.03
65131;BME280;51709;54.912;8.316;2023-07-20T22:56:47;101045.25;;;17.12;64.69
65131;BME280;51709;54.912;8.316;2023-07-20T23:02:08;101034.25;;;17.12;64.12
65131;BME280;51709;54.912;8.316;2023-07-20T23:07:30;101041.44;;;17.13;64.45
65131;BME280;51709;54.912;8.316;2023-07-20T23:12:51;101043.31;;;17.13;64.05
65131;BME280;51709;54.912;8.316;2023-07-20T23:18:12;101033.84;;;17.15;64.14
65131;BME280;51709;54.912;8.316;2023-07-20T23:23:32;101028.16;;;17.17;64.62
65131;BME280;51709;54.912;8.316;2023-07-20T23:28:55;101019.06;;;17.16;64.43
65131;BME280;51709;54.912;8.316;2023-07-20T23:34:16;101021.81;;;17.16;64.21
65131;BME280;51709;54.912;8.316;2023-07-20T23:39:37;101006.41;;;17.15;64.17
65131;BME280;51709;54.912;8.316;2023-07-20T23:44:57;101015.28;;;17.17;64.28
65131;BME280;51709;54.912;8.316;2023-07-20T23:50:18;101018.03;;;17.17;64.84
65131;BME280;51709;54.912;8.316;2023-07-20T23:55:38;101019.59;;;16.84;65.21
